sensor_id;sensor_type;location;lat;lon;timestamp;temperature;humidity
51175;DHT22;37240;50.104;20.010;2023-01-10T00:04:44;10.10;99.90
51175;DHT22;37240;50.104;20.010;2023-01-10T00:09:44;10.10;99.90
51175;DHT22;37240;50.104;20.010;2023-01-10T00:14:45;10.10;99.90
51175;DHT22;37240;50.104;20.010;2023-01-10T00:19:45;10.10;99.90
51175;DHT22;37240;50.104;20.010;2023-01-10T00:24:46;10.10;99.90
51175;DHT22;37240;50.104;20.010;2023-01-10T00:29:47;10.10;99.90
51175;DHT22;37240;50.104;20.010;2023-01-10T00:34:48;10.10;99.90
51175;DHT22;37240;50.104;20.010;2023-01-10T00:39:49;10.00;99.90
51175;DHT22;37240;50.104;20.010;2023-01-10T00:44:49;10.00;99.90
51175;DHT22;37240;50.104;20.010;2023-01-10T00:49:50;10.00;99.90
51175;DHT22;37240;50.104;20.010;2023-01-10T00:54:50;10.00;99.90
51175;DHT22;37240;50.104;20.010;2023-01-10T00:59:51;9.90;99.90
51175;DHT22;37240;50.104;20.010;2023-01-10T01:04:51;9.90;99.90
51175;DHT22;37240;50.104;20.010;2023-01-10T01:09:52;9.90;99.90
51175;DHT22;37240;50.104;20.010;2023-01-10T01:14:52;9.90;99.90
51175;DHT22;37240;50.104;20.010;2023-01-10T01:19:53;9.90;99.90
51175;DHT22;37240;50.104;20.010;2023-01-10T01:24:53;9.80;99.90
51175;DHT22;37240;50.104;20.010;2023-01-10T01:29:54;9.80;99.90
51175;DHT22;37240;50.104;20.010;2023-01-10T01:34:55;9.80;99.90
51175;DHT22;37240;50.104;20.010;2023-01-10T01:39:55;9.80;99.90
51175;DHT22;37240;50.104;20.010;2023-01-10T01:55:33;9.80;99.90
51175;DHT22;37240;50.104;20.010;2023-01-10T02:00:35;9.80;99.90
51175;DHT22;37240;50.104;20.010;2023-01-10T02:05:38;9.80;99.90
51175;DHT22;37240;50.104;20.010;2023-01-10T02:10:44;9.80;99.90
51175;DHT22;37240;50.104;20.010;2023-01-10T02:15:46;9.80;99.90
51175;DHT22;37240;50.104;20.010;2023-01-10T02:26:42;9.70;99.90
51175;DHT22;37240;50.104;20.010;2023-01-10T02:42:38;9.60;99.90
51175;DHT22;37240;50.104;20.010;2023-01-10T02:47:41;9.60;99.90
51175;DHT22;37240;50.104;20.010;2023-01-10T02:52:42;9.60;99.90
51175;DHT22;37240;50.104;20.010;2023-01-10T03:08:32;9.60;99.90
51175;DHT22;37240;50.104;20.010;2023-01-10T03:13:56;9.60;99.90
51175;DHT22;37240;50.104;20.010;2023-01-10T03:18:59;9.60;99.90
51175;DHT22;37240;50.104;20.010;2023-01-10T03:24:12;9.60;99.90
51175;DHT22;37240;50.104;20.010;2023-01-10T03:29:20;9.50;99.90
51175;DHT22;37240;50.104;20.010;2023-01-10T03:34:21;9.40;99.90
51175;DHT22;37240;50.104;20.010;2023-01-10T03:44:59;9.40;99.90
51175;DHT22;37240;50.104;20.010;2023-01-10T03:50:14;9.40;99.90
51175;DHT22;37240;50.104;20.010;2023-01-10T03:55:23;9.40;99.90
51175;DHT22;37240;50.104;20.010;2023-01-10T04:00:25;9.30;99.90
51175;DHT22;37240;50.104;20.010;2023-01-10T04:05:25;9.30;99.90
51175;DHT22;37240;50.104;20.010;2023-01-10T04:10:26;9.20;99.90
51175;DHT22;37240;50.104;20.010;2023-01-10T04:15:27;9.20;99.90
51175;DHT22;37240;50.104;20.010;2023-01-10T04:20:27;9.10;99.90
51175;DHT22;37240;50.104;20.010;2023-01-10T04:25:28;9.20;99.90
51175;DHT22;37240;50.104;20.010;2023-01-10T04:30:28;9.10;99.90
51175;DHT22;37240;50.104;20.010;2023-01-10T04:35:29;9.10;99.90
51175;DHT22;37240;50.104;20.010;2023-01-10T04:40:29;9.10;99.90
51175;DHT22;37240;50.104;20.010;2023-01-10T04:45:30;9.00;99.90
51175;DHT22;37240;50.104;20.010;2023-01-10T04:50:30;9.10;99.90
51175;DHT22;37240;50.104;20.010;2023-01-10T04:55:32;9.00;99.90
51175;DHT22;37240;50.104;20.010;2023-01-10T05:00:33;9.10;99.90
51175;DHT22;37240;50.104;20.010;2023-01-10T05:05:33;9.00;99.90
51175;DHT22;37240;50.104;20.010;2023-01-10T05:10:34;9.00;99.90
51175;DHT22;37240;50.104;20.010;2023-01-10T05:15:34;9.00;99.90
51175;DHT22;37240;50.104;20.010;2023-01-10T05:20:35;9.00;99.90
51175;DHT22;37240;50.104;20.010;2023-01-10T05:25:36;8.90;99.90
51175;DHT22;37240;50.104;20.010;2023-01-10T05:30:36;8.90;99.90
51175;DHT22;37240;50.104;20.010;2023-01-10T05:35:37;9.00;99.90
51175;DHT22;37240;50.104;20.010;2023-01-10T05:40:37;8.90;99.90
51175;DHT22;37240;50.104;20.010;2023-01-10T05:45:38;8.90;99.90
51175;DHT22;37240;50.104;20.010;2023-01-10T05:50:38;8.80;99.90
51175;DHT22;37240;50.104;20.010;2023-01-10T05:55:39;8.80;99.90
51175;DHT22;37240;50.104;20.010;2023-01-10T06:00:39;8.80;99.90
51175;DHT22;37240;50.104;20.010;2023-01-10T06:05:40;8.80;99.90
51175;DHT22;37240;50.104;20.010;2023-01-10T06:10:41;8.80;99.90
51175;DHT22;37240;50.104;20.010;2023-01-10T06:15:42;8.70;99.90
51175;DHT22;37240;50.104;20.010;2023-01-10T06:20:43;8.70;99.90
51175;DHT22;37240;50.104;20.010;2023-01-10T06:25:43;8.70;99.90
51175;DHT22;37240;50.104;20.010;2023-01-10T06:30:44;8.50;99.90
51175;DHT22;37240;50.104;20.010;2023-01-10T06:35:44;8.60;99.90
51175;DHT22;37240;50.104;20.010;2023-01-10T06:40:45;8.60;99.90
51175;DHT22;37240;50.104;20.010;2023-01-10T06:45:46;8.50;99.90
51175;DHT22;37240;50.104;20.010;2023-01-10T06:50:48;8.40;99.90
51175;DHT22;37240;50.104;20.010;2023-01-10T06:55:49;8.50;99.90
51175;DHT22;37240;50.104;20.010;2023-01-10T07:00:50;8.50;99.90
51175;DHT22;37240;50.104;20.010;2023-01-10T07:05:50;8.50;99.90
51175;DHT22;37240;50.104;20.010;2023-01-10T07:10:51;8.50;99.90
51175;DHT22;37240;50.104;20.010;2023-01-10T07:15:51;8.40;99.90
51175;DHT22;37240;50.104;20.010;2023-01-10T07:20:52;8.40;99.90
51175;DHT22;37240;50.104;20.010;2023-01-10T07:25:53;8.20;99.90
51175;DHT22;37240;50.104;20.010;2023-01-10T07:30:53;8.30;99.90
51175;DHT22;37240;50.104;20.010;2023-01-10T07:35:54;8.30;99.90
51175;DHT22;37240;50.104;20.010;2023-01-10T07:40:54;8.20;99.90
51175;DHT22;37240;50.104;20.010;2023-01-10T07:46:03;8.20;99.90
51175;DHT22;37240;50.104;20.010;2023-01-10T07:51:04;8.20;99.90
51175;DHT22;37240;50.104;20.010;2023-01-10T07:56:05;8.20;99.90
51175;DHT22;37240;50.104;20.010;2023-01-10T08:01:06;8.30;99.90
51175;DHT22;37240;50.104;20.010;2023-01-10T08:06:08;8.40;99.90
51175;DHT22;37240;50.104;20.010;2023-01-10T08:11:08;8.50;99.90
51175;DHT22;37240;50.104;20.010;2023-01-10T08:16:09;8.50;99.90
51175;DHT22;37240;50.104;20.010;2023-01-10T08:21:09;8.50;99.90
51175;DHT22;37240;50.104;20.010;2023-01-10T08:26:10;8.60;99.90
51175;DHT22;37240;50.104;20.010;2023-01-10T08:31:11;8.60;99.90
51175;DHT22;37240;50.104;20.010;2023-01-10T08:36:19;8.60;99.90
51175;DHT22;37240;50.104;20.010;2023-01-10T08:41:20;8.60;99.90
51175;DHT22;37240;50.104;20.010;2023-01-10T08:46:20;8.60;99.90
51175;DHT22;37240;50.104;20.010;2023-01-10T08:51:21;8.60;99.90
51175;DHT22;37240;50.104;20.010;2023-01-10T08:56:21;8.60;99.90
51175;DHT22;37240;50.104;20.010;2023-01-10T09:01:22;8.70;99.90
51175;DHT22;37240;50.104;20.010;2023-01-10T09:06:22;8.60;99.90
51175;DHT22;37240;50.104;20.010;2023-01-10T09:11:23;8.60;99.90
51175;DHT22;37240;50.104;20.010;2023-01-10T09:16:23;8.70;99.90
51175;DHT22;37240;50.104;20.010;2023-01-10T09:21:24;8.70;99.90
51175;DHT22;37240;50.104;20.010;2023-01-10T09:26:26;8.70;99.90
51175;DHT22;37240;50.104;20.010;2023-01-10T09:31:26;8.80;99.90
51175;DHT22;37240;50.104;20.010;2023-01-10T09:36:27;8.80;99.90
51175;DHT22;37240;50.104;20.010;2023-01-10T09:51:59;9.10;99.90
51175;DHT22;37240;50.104;20.010;2023-01-10T09:57:01;9.10;99.90
51175;DHT22;37240;50.104;20.010;2023-01-10T10:02:33;9.10;99.90
51175;DHT22;37240;50.104;20.010;2023-01-10T10:07:35;9.10;99.90
51175;DHT22;37240;50.104;20.010;2023-01-10T10:23:11;9.00;99.90
51175;DHT22;37240;50.104;20.010;2023-01-10T10:38:57;8.90;99.90
51175;DHT22;37240;50.104;20.010;2023-01-10T10:44:01;8.90;99.90
51175;DHT22;37240;50.104;20.010;2023-01-10T10:49:32;9.00;99.90
51175;DHT22;37240;50.104;20.010;2023-01-10T10:54:35;9.00;99.90
51175;DHT22;37240;50.104;20.010;2023-01-10T10:59:35;9.00;99.90
51175;DHT22;37240;50.104;20.010;2023-01-10T11:04:36;9.00;99.90
51175;DHT22;37240;50.104;20.010;2023-01-10T11:09:37;9.00;99.90
51175;DHT22;37240;50.104;20.010;2023-01-10T11:14:46;9.00;99.90
51175;DHT22;37240;50.104;20.010;2023-01-10T11:20:14;9.00;99.90
51175;DHT22;37240;50.104;20.010;2023-01-10T11:25:16;9.00;99.90
51175;DHT22;37240;50.104;20.010;2023-01-10T11:30:21;9.00;99.90
51175;DHT22;37240;50.104;20.010;2023-01-10T11:35:24;9.00;99.90
51175;DHT22;37240;50.104;20.010;2023-01-10T11:40:27;8.90;99.90
51175;DHT22;37240;50.104;20.010;2023-01-10T11:45:34;8.90;99.90
51175;DHT22;37240;50.104;20.010;2023-01-10T11:50:38;9.00;99.90
51175;DHT22;37240;50.104;20.010;2023-01-10T11:55:44;9.00;99.90
51175;DHT22;37240;50.104;20.010;2023-01-10T12:00:47;8.90;99.90
51175;DHT22;37240;50.104;20.010;2023-01-10T12:06:15;8.90;99.90
51175;DHT22;37240;50.104;20.010;2023-01-10T12:16:21;8.90;99.90
51175;DHT22;37240;50.104;20.010;2023-01-10T12:21:42;8.90;99.90
51175;DHT22;37240;50.104;20.010;2023-01-10T12:26:43;9.00;99.90
51175;DHT22;37240;50.104;20.010;2023-01-10T12:31:44;8.90;99.90
51175;DHT22;37240;50.104;20.010;2023-01-10T12:52:59;8.90;99.90
51175;DHT22;37240;50.104;20.010;2023-01-10T12:58:02;8.80;99.90
51175;DHT22;37240;50.104;20.010;2023-01-10T13:03:11;8.90;99.90
51175;DHT22;37240;50.104;20.010;2023-01-10T13:08:21;8.90;99.90
51175;DHT22;37240;50.104;20.010;2023-01-10T13:13:39;8.90;99.90
51175;DHT22;37240;50.104;20.010;2023-01-10T13:24:03;9.00;99.90
51175;DHT22;37240;50.104;20.010;2023-01-10T13:29:04;9.00;99.90
51175;DHT22;37240;50.104;20.010;2023-01-10T13:34:14;8.90;99.90
51175;DHT22;37240;50.104;20.010;2023-01-10T13:39:34;8.90;99.90
51175;DHT22;37240;50.104;20.010;2023-01-10T13:49:59;8.90;99.90
51175;DHT22;37240;50.104;20.010;2023-01-10T13:55:10;8.90;99.90
51175;DHT22;37240;50.104;20.010;2023-01-10T14:00:23;8.90;99.90
51175;DHT22;37240;50.104;20.010;2023-01-10T14:05:25;8.90;99.90
51175;DHT22;37240;50.104;20.010;2023-01-10T14:10:29;8.90;99.90
51175;DHT22;37240;50.104;20.010;2023-01-10T14:15:37;8.90;99.90
51175;DHT22;37240;50.104;20.010;2023-01-10T14:20:38;9.00;99.90
51175;DHT22;37240;50.104;20.010;2023-01-10T14:25:41;9.00;99.90
51175;DHT22;37240;50.104;20.010;2023-01-10T14:30:42;9.00;99.90
51175;DHT22;37240;50.104;20.010;2023-01-10T14:35:46;9.00;99.90
51175;DHT22;37240;50.104;20.010;2023-01-10T14:40:51;9.00;99.90
51175;DHT22;37240;50.104;20.010;2023-01-10T14:56:50;8.90;99.90
51175;DHT22;37240;50.104;20.010;2023-01-10T15:07:10;8.90;99.90
51175;DHT22;37240;50.104;20.010;2023-01-10T15:12:11;8.90;99.90
51175;DHT22;37240;50.104;20.010;2023-01-10T15:17:17;8.80;99.90
51175;DHT22;37240;50.104;20.010;2023-01-10T15:22:33;8.80;99.90
51175;DHT22;37240;50.104;20.010;2023-01-10T15:27:35;8.80;99.90
51175;DHT22;37240;50.104;20.010;2023-01-10T15:32:38;8.80;99.90
51175;DHT22;37240;50.104;20.010;2023-01-10T15:37:39;8.80;99.90
51175;DHT22;37240;50.104;20.010;2023-01-10T15:42:45;8.80;99.90
51175;DHT22;37240;50.104;20.010;2023-01-10T15:52:51;8.70;99.90
51175;DHT22;37240;50.104;20.010;2023-01-10T15:57:52;8.70;99.90
51175;DHT22;37240;50.104;20.010;2023-01-10T16:02:52;8.60;99.90
51175;DHT22;37240;50.104;20.010;2023-01-10T16:07:53;8.60;99.90
51175;DHT22;37240;50.104;20.010;2023-01-10T16:13:08;8.70;99.90
51175;DHT22;37240;50.104;20.010;2023-01-10T16:18:09;8.70;99.90
51175;DHT22;37240;50.104;20.010;2023-01-10T16:23:14;8.70;99.90
51175;DHT22;37240;50.104;20.010;2023-01-10T16:28:16;8.70;99.90
51175;DHT22;37240;50.104;20.010;2023-01-10T16:33:22;8.70;99.90
51175;DHT22;37240;50.104;20.010;2023-01-10T16:38:25;8.70;99.90
51175;DHT22;37240;50.104;20.010;2023-01-10T16:43:26;8.70;99.90
51175;DHT22;37240;50.104;20.010;2023-01-10T16:48:28;8.70;99.90
51175;DHT22;37240;50.104;20.010;2023-01-10T16:53:29;8.70;99.90
51175;DHT22;37240;50.104;20.010;2023-01-10T16:58:30;8.70;99.90
51175;DHT22;37240;50.104;20.010;2023-01-10T17:03:34;8.70;99.90
51175;DHT22;37240;50.104;20.010;2023-01-10T17:08:35;8.80;99.90
51175;DHT22;37240;50.104;20.010;2023-01-10T17:13:41;8.70;99.90
51175;DHT22;37240;50.104;20.010;2023-01-10T17:18:42;8.80;99.90
51175;DHT22;37240;50.104;20.010;2023-01-10T17:23:43;8.80;99.90
51175;DHT22;37240;50.104;20.010;2023-01-10T17:28:43;8.80;99.90
51175;DHT22;37240;50.104;20.010;2023-01-10T17:33:44;8.70;99.90
51175;DHT22;37240;50.104;20.010;2023-01-10T17:38:44;8.70;99.90
51175;DHT22;37240;50.104;20.010;2023-01-10T17:43:45;8.70;99.90
51175;DHT22;37240;50.104;20.010;2023-01-10T17:48:46;8.70;99.90
51175;DHT22;37240;50.104;20.010;2023-01-10T17:53:46;8.70;99.90
51175;DHT22;37240;50.104;20.010;2023-01-10T17:58:47;8.70;99.90
51175;DHT22;37240;50.104;20.010;2023-01-10T18:03:47;8.70;99.90
51175;DHT22;37240;50.104;20.010;2023-01-10T18:08:48;8.70;99.90
51175;DHT22;37240;50.104;20.010;2023-01-10T18:13:49;8.70;99.90
51175;DHT22;37240;50.104;20.010;2023-01-10T18:18:49;8.80;99.90
51175;DHT22;37240;50.104;20.010;2023-01-10T18:23:53;8.80;99.90
51175;DHT22;37240;50.104;20.010;2023-01-10T18:28:54;8.80;99.90
51175;DHT22;37240;50.104;20.010;2023-01-10T18:33:54;8.80;99.90
51175;DHT22;37240;50.104;20.010;2023-01-10T18:38:56;8.80;99.90
51175;DHT22;37240;50.104;20.010;2023-01-10T18:43:56;8.70;99.90
51175;DHT22;37240;50.104;20.010;2023-01-10T18:48:57;8.70;99.90
51175;DHT22;37240;50.104;20.010;2023-01-10T18:53:57;8.70;99.90
51175;DHT22;37240;50.104;20.010;2023-01-10T18:58:58;8.70;99.90
51175;DHT22;37240;50.104;20.010;2023-01-10T19:03:59;8.70;99.90
51175;DHT22;37240;50.104;20.010;2023-01-10T19:08:59;8.70;99.90
51175;DHT22;37240;50.104;20.010;2023-01-10T19:14:00;8.70;99.90
51175;DHT22;37240;50.104;20.010;2023-01-10T19:19:03;8.70;99.90
51175;DHT22;37240;50.104;20.010;2023-01-10T19:24:14;8.70;99.90
51175;DHT22;37240;50.104;20.010;2023-01-10T19:29:19;8.70;99.90
51175;DHT22;37240;50.104;20.010;2023-01-10T19:34:19;8.70;99.90
51175;DHT22;37240;50.104;20.010;2023-01-10T19:39:20;8.70;99.90
51175;DHT22;37240;50.104;20.010;2023-01-10T19:44:20;8.70;99.90
51175;DHT22;37240;50.104;20.010;2023-01-10T19:49:21;8.70;99.90
51175;DHT22;37240;50.104;20.010;2023-01-10T19:54:22;8.70;99.90
51175;DHT22;37240;50.104;20.010;2023-01-10T19:59:22;8.70;99.90
51175;DHT22;37240;50.104;20.010;2023-01-10T20:04:23;8.70;99.90
51175;DHT22;37240;50.104;20.010;2023-01-10T20:09:23;8.70;99.90
51175;DHT22;37240;50.104;20.010;2023-01-10T20:14:24;8.70;99.90
51175;DHT22;37240;50.104;20.010;2023-01-10T20:19:24;8.70;99.90
51175;DHT22;37240;50.104;20.010;2023-01-10T20:24:25;8.70;99.90
51175;DHT22;37240;50.104;20.010;2023-01-10T20:29:26;8.70;99.90
51175;DHT22;37240;50.104;20.010;2023-01-10T20:34:27;8.70;99.90
51175;DHT22;37240;50.104;20.010;2023-01-10T20:39:28;8.70;99.90
51175;DHT22;37240;50.104;20.010;2023-01-10T20:44:28;8.70;99.90
51175;DHT22;37240;50.104;20.010;2023-01-10T20:49:29;8.70;99.90
51175;DHT22;37240;50.104;20.010;2023-01-10T20:54:29;8.70;99.90
51175;DHT22;37240;50.104;20.010;2023-01-10T20:59:30;8.70;99.90
51175;DHT22;37240;50.104;20.010;2023-01-10T21:04:30;8.70;99.90
51175;DHT22;37240;50.104;20.010;2023-01-10T21:09:31;8.70;99.90
51175;DHT22;37240;50.104;20.010;2023-01-10T21:14:31;8.70;99.90
51175;DHT22;37240;50.104;20.010;2023-01-10T21:19:32;8.60;99.90
51175;DHT22;37240;50.104;20.010;2023-01-10T21:24:33;8.60;99.90
51175;DHT22;37240;50.104;20.010;2023-01-10T21:29:33;8.60;99.90
51175;DHT22;37240;50.104;20.010;2023-01-10T21:34:34;8.60;99.90
51175;DHT22;37240;50.104;20.010;2023-01-10T21:39:35;8.60;99.90
51175;DHT22;37240;50.104;20.010;2023-01-10T21:44:35;8.70;99.90
51175;DHT22;37240;50.104;20.010;2023-01-10T21:49:36;8.60;99.90
51175;DHT22;37240;50.104;20.010;2023-01-10T21:54:36;8.60;99.90
51175;DHT22;37240;50.104;20.010;2023-01-10T21:59:37;8.60;99.90
51175;DHT22;37240;50.104;20.010;2023-01-10T22:04:37;8.50;99.90
51175;DHT22;37240;50.104;20.010;2023-01-10T22:09:38;8.50;99.90
51175;DHT22;37240;50.104;20.010;2023-01-10T22:14:38;8.40;99.90
51175;DHT22;37240;50.104;20.010;2023-01-10T22:19:39;8.40;99.90
51175;DHT22;37240;50.104;20.010;2023-01-10T22:24:40;8.40;99.90
51175;DHT22;37240;50.104;20.010;2023-01-10T22:29:41;8.30;99.90
51175;DHT22;37240;50.104;20.010;2023-01-10T22:34:41;8.40;99.90
51175;DHT22;37240;50.104;20.010;2023-01-10T22:39:42;8.40;99.90
51175;DHT22;37240;50.104;20.010;2023-01-10T22:44:42;8.40;99.90
51175;DHT22;37240;50.104;20.010;2023-01-10T22:49:43;8.40;99.90
51175;DHT22;37240;50.104;20.010;2023-01-10T22:54:43;8.40;99.90
51175;DHT22;37240;50.104;20.010;2023-01-10T22:59:44;8.50;99.90
51175;DHT22;37240;50.104;20.010;2023-01-10T23:04:44;8.40;99.90
51175;DHT22;37240;50.104;20.010;2023-01-10T23:09:45;8.50;99.90
51175;DHT22;37240;50.104;20.010;2023-01-10T23:14:45;8.50;99.90
51175;DHT22;37240;50.104;20.010;2023-01-10T23:19:46;8.40;99.90
51175;DHT22;37240;50.104;20.010;2023-01-10T23:24:47;8.40;99.90
51175;DHT22;37240;50.104;20.010;2023-01-10T23:29:47;8.50;99.90
51175;DHT22;37240;50.104;20.010;2023-01-10T23:34:48;8.40;99.90
51175;DHT22;37240;50.104;20.010;2023-01-10T23:39:48;8.50;99.90
51175;DHT22;37240;50.104;20.010;2023-01-10T23:44:49;8.50;99.90
51175;DHT22;37240;50.104;20.010;2023-01-10T23:49:49;8.50;99.90
51175;DHT22;37240;50.104;20.010;2023-01-10T23:54:50;8.60;99.90
51175;DHT22;37240;50.104;20.010;2023-01-10T23:59:50;8.50;99.90
